sensor_id;sensor_type;location;lat;lon;timestamp;temperature;humidity
35127;DHT22;21300;52.006;5.798;2023-11-18T00:00:23;4.30;99.90
35127;DHT22;21300;52.006;5.798;2023-11-18T00:02:49;4.20;99.90
35127;DHT22;21300;52.006;5.798;2023-11-18T00:05:15;4.30;99.90
35127;DHT22;21300;52.006;5.798;2023-11-18T00:07:41;4.30;99.90
35127;DHT22;21300;52.006;5.798;2023-11-18T00:10:10;4.30;99.90
35127;DHT22;21300;52.006;5.798;2023-11-18T00:12:36;4.30;99.90
35127;DHT22;21300;52.006;5.798;2023-11-18T00:15:05;4.30;99.90
35127;DHT22;21300;52.006;5.798;2023-11-18T00:17:34;4.30;99.90
35127;DHT22;21300;52.006;5.798;2023-11-18T00:19:59;4.40;99.90
35127;DHT22;21300;52.006;5.798;2023-11-18T00:22:25;4.40;99.90
35127;DHT22;21300;52.006;5.798;2023-11-18T00:24:50;4.40;99.90
35127;DHT22;21300;52.006;5.798;2023-11-18T00:27:20;4.40;99.90
35127;DHT22;21300;52.006;5.798;2023-11-18T00:29:48;4.40;99.90
35127;DHT22;21300;52.006;5.798;2023-11-18T00:32:22;4.40;99.90
35127;DHT22;21300;52.006;5.798;2023-11-18T00:34:51;4.40;99.90
35127;DHT22;21300;52.006;5.798;2023-11-18T00:37:19;4.40;99.90
35127;DHT22;21300;52.006;5.798;2023-11-18T00:39:52;4.40;99.90
35127;DHT22;21300;52.006;5.798;2023-11-18T00:42:18;4.40;99.90
35127;DHT22;21300;52.006;5.798;2023-11-18T00:44:43;4.30;99.90
35127;DHT22;21300;52.006;5.798;2023-11-18T00:47:09;4.30;99.90
35127;DHT22;21300;52.006;5.798;2023-11-18T00:49:35;4.30;99.90
35127;DHT22;21300;52.006;5.798;2023-11-18T00:52:01;4.20;99.90
35127;DHT22;21300;52.006;5.798;2023-11-18T00:54:27;4.20;99.90
35127;DHT22;21300;52.006;5.798;2023-11-18T00:56:52;4.10;99.90
35127;DHT22;21300;52.006;5.798;2023-11-18T00:59:18;4.10;99.90
35127;DHT22;21300;52.006;5.798;2023-11-18T01:01:43;4.00;99.90
35127;DHT22;21300;52.006;5.798;2023-11-18T01:04:09;4.00;99.90
35127;DHT22;21300;52.006;5.798;2023-11-18T01:06:35;4.00;99.90
35127;DHT22;21300;52.006;5.798;2023-11-18T01:09:00;4.00;99.90
35127;DHT22;21300;52.006;5.798;2023-11-18T01:11:26;3.90;99.90
35127;DHT22;21300;52.006;5.798;2023-11-18T01:13:52;3.90;99.90
35127;DHT22;21300;52.006;5.798;2023-11-18T01:16:20;3.90;99.90
35127;DHT22;21300;52.006;5.798;2023-11-18T01:18:46;3.90;99.90
35127;DHT22;21300;52.006;5.798;2023-11-18T01:21:12;3.80;99.90
35127;DHT22;21300;52.006;5.798;2023-11-18T01:23:38;3.80;99.90
35127;DHT22;21300;52.006;5.798;2023-11-18T01:26:07;3.70;99.90
35127;DHT22;21300;52.006;5.798;2023-11-18T01:28:36;3.70;99.90
35127;DHT22;21300;52.006;5.798;2023-11-18T01:31:04;3.60;99.90
35127;DHT22;21300;52.006;5.798;2023-11-18T01:33:30;3.60;99.90
35127;DHT22;21300;52.006;5.798;2023-11-18T01:35:58;3.60;99.90
35127;DHT22;21300;52.006;5.798;2023-11-18T01:38:24;3.50;99.90
35127;DHT22;21300;52.006;5.798;2023-11-18T01:40:51;3.50;99.90
35127;DHT22;21300;52.006;5.798;2023-11-18T01:43:18;3.50;99.90
35127;DHT22;21300;52.006;5.798;2023-11-18T01:45:44;3.50;99.90
35127;DHT22;21300;52.006;5.798;2023-11-18T01:48:10;3.50;99.90
35127;DHT22;21300;52.006;5.798;2023-11-18T01:50:37;3.50;99.90
35127;DHT22;21300;52.006;5.798;2023-11-18T01:53:04;3.50;99.90
35127;DHT22;21300;52.006;5.798;2023-11-18T01:55:31;3.40;99.90
35127;DHT22;21300;52.006;5.798;2023-11-18T01:57:57;3.40;99.90
35127;DHT22;21300;52.006;5.798;2023-11-18T02:00:24;3.40;99.90
35127;DHT22;21300;52.006;5.798;2023-11-18T02:02:49;3.40;99.90
35127;DHT22;21300;52.006;5.798;2023-11-18T02:05:15;3.40;99.90
35127;DHT22;21300;52.006;5.798;2023-11-18T02:07:42;3.50;99.90
35127;DHT22;21300;52.006;5.798;2023-11-18T02:10:09;3.50;99.90
35127;DHT22;21300;52.006;5.798;2023-11-18T03:31:24;4.20;99.90
35127;DHT22;21300;52.006;5.798;2023-11-18T04:01:25;4.50;99.90
35127;DHT22;21300;52.006;5.798;2023-11-18T04:03:59;4.50;99.90
35127;DHT22;21300;52.006;5.798;2023-11-18T04:06:24;4.50;99.90
35127;DHT22;21300;52.006;5.798;2023-11-18T04:08:50;4.60;99.90
35127;DHT22;21300;52.006;5.798;2023-11-18T04:11:19;4.60;99.90
35127;DHT22;21300;52.006;5.798;2023-11-18T04:13:45;4.60;99.90
35127;DHT22;21300;52.006;5.798;2023-11-18T04:16:48;4.60;99.90
35127;DHT22;21300;52.006;5.798;2023-11-18T04:19:32;4.60;99.90
35127;DHT22;21300;52.006;5.798;2023-11-18T04:22:03;4.60;99.90
35127;DHT22;21300;52.006;5.798;2023-11-18T04:24:32;4.60;99.90
35127;DHT22;21300;52.006;5.798;2023-11-18T04:27:02;4.60;99.90
35127;DHT22;21300;52.006;5.798;2023-11-18T04:29:32;4.60;99.90
35127;DHT22;21300;52.006;5.798;2023-11-18T04:31:58;4.60;99.90
35127;DHT22;21300;52.006;5.798;2023-11-18T04:34:25;4.60;99.90
35127;DHT22;21300;52.006;5.798;2023-11-18T04:36:52;4.60;99.90
35127;DHT22;21300;52.006;5.798;2023-11-18T04:39:17;4.60;99.90
35127;DHT22;21300;52.006;5.798;2023-11-18T04:41:43;4.70;99.90
35127;DHT22;21300;52.006;5.798;2023-11-18T04:44:09;4.70;99.90
35127;DHT22;21300;52.006;5.798;2023-11-18T04:46:34;4.70;99.90
35127;DHT22;21300;52.006;5.798;2023-11-18T04:49:01;4.70;99.90
35127;DHT22;21300;52.006;5.798;2023-11-18T04:51:27;4.70;99.90
35127;DHT22;21300;52.006;5.798;2023-11-18T04:53:53;4.70;99.90
35127;DHT22;21300;52.006;5.798;2023-11-18T04:56:19;4.70;99.90
35127;DHT22;21300;52.006;5.798;2023-11-18T04:58:45;4.70;99.90
35127;DHT22;21300;52.006;5.798;2023-11-18T05:01:14;4.70;99.90
35127;DHT22;21300;52.006;5.798;2023-11-18T05:03:39;4.70;99.90
35127;DHT22;21300;52.006;5.798;2023-11-18T05:06:05;4.70;99.90
35127;DHT22;21300;52.006;5.798;2023-11-18T05:08:31;4.70;99.90
35127;DHT22;21300;52.006;5.798;2023-11-18T05:10:59;4.80;99.90
35127;DHT22;21300;52.006;5.798;2023-11-18T05:13:24;4.80;99.90
35127;DHT22;21300;52.006;5.798;2023-11-18T05:15:51;4.80;99.90
35127;DHT22;21300;52.006;5.798;2023-11-18T05:18:19;4.80;99.90
35127;DHT22;21300;52.006;5.798;2023-11-18T05:20:46;4.80;99.90
35127;DHT22;21300;52.006;5.798;2023-11-18T05:23:13;4.80;99.90
35127;DHT22;21300;52.006;5.798;2023-11-18T05:25:42;4.90;99.90
35127;DHT22;21300;52.006;5.798;2023-11-18T05:28:09;4.90;99.90
35127;DHT22;21300;52.006;5.798;2023-11-18T05:30:38;4.80;99.90
35127;DHT22;21300;52.006;5.798;2023-11-18T05:33:06;4.90;99.90
35127;DHT22;21300;52.006;5.798;2023-11-18T05:35:33;4.80;99.90
35127;DHT22;21300;52.006;5.798;2023-11-18T05:37:59;4.80;99.90
35127;DHT22;21300;52.006;5.798;2023-11-18T05:40:26;4.80;99.90
35127;DHT22;21300;52.006;5.798;2023-11-18T05:42:52;4.80;99.90
35127;DHT22;21300;52.006;5.798;2023-11-18T05:45:19;4.80;99.90
35127;DHT22;21300;52.006;5.798;2023-11-18T05:47:56;4.80;99.90
35127;DHT22;21300;52.006;5.798;2023-11-18T05:50:25;4.80;99.90
35127;DHT22;21300;52.006;5.798;2023-11-18T05:52:52;4.80;99.90
35127;DHT22;21300;52.006;5.798;2023-11-18T05:55:18;4.70;99.90
35127;DHT22;21300;52.006;5.798;2023-11-18T05:57:44;4.80;99.90
35127;DHT22;21300;52.006;5.798;2023-11-18T06:00:11;4.80;99.90
35127;DHT22;21300;52.006;5.798;2023-11-18T06:02:41;4.80;99.90
35127;DHT22;21300;52.006;5.798;2023-11-18T06:05:07;4.80;99.90
35127;DHT22;21300;52.006;5.798;2023-11-18T06:07:38;4.80;99.90
35127;DHT22;21300;52.006;5.798;2023-11-18T06:10:06;4.80;99.90
35127;DHT22;21300;52.006;5.798;2023-11-18T06:12:32;4.80;99.90
35127;DHT22;21300;52.006;5.798;2023-11-18T06:14:59;4.80;99.90
35127;DHT22;21300;52.006;5.798;2023-11-18T06:17:24;4.80;99.90
35127;DHT22;21300;52.006;5.798;2023-11-18T06:19:50;4.80;99.90
35127;DHT22;21300;52.006;5.798;2023-11-18T06:22:16;4.90;99.90
35127;DHT22;21300;52.006;5.798;2023-11-18T06:24:44;4.90;99.90
35127;DHT22;21300;52.006;5.798;2023-11-18T06:27:10;4.80;99.90
35127;DHT22;21300;52.006;5.798;2023-11-18T06:29:35;4.80;99.90
35127;DHT22;21300;52.006;5.798;2023-11-18T06:32:01;4.80;99.90
35127;DHT22;21300;52.006;5.798;2023-11-18T06:34:27;4.80;99.90
35127;DHT22;21300;52.006;5.798;2023-11-18T06:36:53;4.80;99.90
35127;DHT22;21300;52.006;5.798;2023-11-18T06:39:19;4.80;99.90
35127;DHT22;21300;52.006;5.798;2023-11-18T06:41:54;4.80;99.90
35127;DHT22;21300;52.006;5.798;2023-11-18T06:44:20;4.80;99.90
35127;DHT22;21300;52.006;5.798;2023-11-18T06:46:49;4.80;99.90
35127;DHT22;21300;52.006;5.798;2023-11-18T06:49:16;4.80;99.90
35127;DHT22;21300;52.006;5.798;2023-11-18T06:51:42;4.80;99.90
35127;DHT22;21300;52.006;5.798;2023-11-18T06:54:08;4.80;99.90
35127;DHT22;21300;52.006;5.798;2023-11-18T06:56:38;4.80;99.90
35127;DHT22;21300;52.006;5.798;2023-11-18T06:59:07;4.80;99.90
35127;DHT22;21300;52.006;5.798;2023-11-18T07:01:36;4.80;99.90
35127;DHT22;21300;52.006;5.798;2023-11-18T07:04:01;4.90;99.90
35127;DHT22;21300;52.006;5.798;2023-11-18T07:06:27;4.80;99.90
35127;DHT22;21300;52.006;5.798;2023-11-18T07:08:54;4.80;99.90
35127;DHT22;21300;52.006;5.798;2023-11-18T07:11:25;4.80;99.90
35127;DHT22;21300;52.006;5.798;2023-11-18T07:13:51;4.90;99.90
35127;DHT22;21300;52.006;5.798;2023-11-18T07:16:25;4.80;99.90
35127;DHT22;21300;52.006;5.798;2023-11-18T07:18:51;4.80;99.90
35127;DHT22;21300;52.006;5.798;2023-11-18T07:21:19;4.90;99.90
35127;DHT22;21300;52.006;5.798;2023-11-18T07:23:45;4.90;99.90
35127;DHT22;21300;52.006;5.798;2023-11-18T07:26:11;4.90;99.90
35127;DHT22;21300;52.006;5.798;2023-11-18T07:28:39;4.80;99.90
35127;DHT22;21300;52.006;5.798;2023-11-18T07:31:05;4.90;99.90
35127;DHT22;21300;52.006;5.798;2023-11-18T07:33:31;4.90;99.90
35127;DHT22;21300;52.006;5.798;2023-11-18T07:35:58;4.90;99.90
35127;DHT22;21300;52.006;5.798;2023-11-18T07:38:24;4.90;99.90
35127;DHT22;21300;52.006;5.798;2023-11-18T07:40:52;4.90;99.90
35127;DHT22;21300;52.006;5.798;2023-11-18T07:43:22;4.90;99.90
35127;DHT22;21300;52.006;5.798;2023-11-18T07:45:48;4.90;99.90
35127;DHT22;21300;52.006;5.798;2023-11-18T07:48:18;4.90;99.90
35127;DHT22;21300;52.006;5.798;2023-11-18T07:50:46;4.90;99.90
35127;DHT22;21300;52.006;5.798;2023-11-18T07:53:13;4.90;99.90
35127;DHT22;21300;52.006;5.798;2023-11-18T07:55:42;4.90;99.90
35127;DHT22;21300;52.006;5.798;2023-11-18T07:58:08;4.90;99.90
35127;DHT22;21300;52.006;5.798;2023-11-18T08:00:41;4.90;99.90
35127;DHT22;21300;52.006;5.798;2023-11-18T08:03:07;4.90;99.90
35127;DHT22;21300;52.006;5.798;2023-11-18T08:05:37;5.00;99.90
35127;DHT22;21300;52.006;5.798;2023-11-18T08:08:08;4.90;99.90
35127;DHT22;21300;52.006;5.798;2023-11-18T08:10:39;5.00;99.90
35127;DHT22;21300;52.006;5.798;2023-11-18T08:13:06;5.00;99.90
35127;DHT22;21300;52.006;5.798;2023-11-18T08:15:33;5.00;99.90
35127;DHT22;21300;52.006;5.798;2023-11-18T08:18:00;5.00;99.90
35127;DHT22;21300;52.006;5.798;2023-11-18T08:20:25;5.00;99.90
35127;DHT22;21300;52.006;5.798;2023-11-18T08:22:51;5.00;99.90
35127;DHT22;21300;52.006;5.798;2023-11-18T08:25:17;5.00;99.90
35127;DHT22;21300;52.006;5.798;2023-11-18T08:27:46;5.00;99.90
35127;DHT22;21300;52.006;5.798;2023-11-18T08:30:15;5.00;99.90
35127;DHT22;21300;52.006;5.798;2023-11-18T08:32:44;5.10;99.90
35127;DHT22;21300;52.006;5.798;2023-11-18T08:35:11;5.00;99.90
35127;DHT22;21300;52.006;5.798;2023-11-18T08:37:40;5.10;99.90
35127;DHT22;21300;52.006;5.798;2023-11-18T08:40:07;5.10;99.90
35127;DHT22;21300;52.006;5.798;2023-11-18T08:42:46;5.10;99.90
35127;DHT22;21300;52.006;5.798;2023-11-18T08:45:26;5.10;99.90
35127;DHT22;21300;52.006;5.798;2023-11-18T08:47:59;5.20;99.90
35127;DHT22;21300;52.006;5.798;2023-11-18T08:50:27;5.10;99.90
35127;DHT22;21300;52.006;5.798;2023-11-18T08:52:54;5.20;99.90
35127;DHT22;21300;52.006;5.798;2023-11-18T08:55:24;5.20;99.90
35127;DHT22;21300;52.006;5.798;2023-11-18T08:58:04;5.20;99.90
35127;DHT22;21300;52.006;5.798;2023-11-18T09:00:41;5.20;99.90
35127;DHT22;21300;52.006;5.798;2023-11-18T09:03:11;5.20;99.90
35127;DHT22;21300;52.006;5.798;2023-11-18T09:05:47;5.30;99.90
35127;DHT22;21300;52.006;5.798;2023-11-18T09:08:32;5.30;99.90
35127;DHT22;21300;52.006;5.798;2023-11-18T09:11:05;5.30;99.90
35127;DHT22;21300;52.006;5.798;2023-11-18T09:13:32;5.30;99.90
35127;DHT22;21300;52.006;5.798;2023-11-18T09:16:03;5.40;99.90
35127;DHT22;21300;52.006;5.798;2023-11-18T09:18:30;5.40;99.90
35127;DHT22;21300;52.006;5.798;2023-11-18T09:20:59;5.40;99.90
35127;DHT22;21300;52.006;5.798;2023-11-18T09:23:33;5.50;99.90
35127;DHT22;21300;52.006;5.798;2023-11-18T09:26:09;5.50;99.90
35127;DHT22;21300;52.006;5.798;2023-11-18T09:28:38;5.50;99.90
35127;DHT22;21300;52.006;5.798;2023-11-18T09:31:12;5.50;99.90
35127;DHT22;21300;52.006;5.798;2023-11-18T09:33:40;5.50;99.90
35127;DHT22;21300;52.006;5.798;2023-11-18T09:46:33;5.60;99.90
35127;DHT22;21300;52.006;5.798;2023-11-18T09:49:27;5.70;99.90
35127;DHT22;21300;52.006;5.798;2023-11-18T09:51:59;5.70;99.90
35127;DHT22;21300;52.006;5.798;2023-11-18T09:57:16;5.70;99.90
35127;DHT22;21300;52.006;5.798;2023-11-18T10:00:01;5.80;99.90
35127;DHT22;21300;52.006;5.798;2023-11-18T10:02:39;5.80;99.90
35127;DHT22;21300;52.006;5.798;2023-11-18T10:05:07;5.80;99.90
35127;DHT22;21300;52.006;5.798;2023-11-18T10:07:39;5.80;99.90
35127;DHT22;21300;52.006;5.798;2023-11-18T10:10:07;5.80;99.90
35127;DHT22;21300;52.006;5.798;2023-11-18T10:12:41;5.80;99.90
35127;DHT22;21300;52.006;5.798;2023-11-18T10:15:09;5.80;99.90
35127;DHT22;21300;52.006;5.798;2023-11-18T10:17:43;5.80;99.90
35127;DHT22;21300;52.006;5.798;2023-11-18T10:20:43;5.80;99.90
35127;DHT22;21300;52.006;5.798;2023-11-18T10:23:10;5.80;99.90
35127;DHT22;21300;52.006;5.798;2023-11-18T10:25:37;5.80;99.90
35127;DHT22;21300;52.006;5.798;2023-11-18T10:28:07;5.90;99.90
35127;DHT22;21300;52.006;5.798;2023-11-18T10:30:43;5.90;99.90
35127;DHT22;21300;52.006;5.798;2023-11-18T10:33:14;5.90;99.90
35127;DHT22;21300;52.006;5.798;2023-11-18T10:35:49;6.00;99.90
35127;DHT22;21300;52.006;5.798;2023-11-18T10:38:17;6.00;99.90
35127;DHT22;21300;52.006;5.798;2023-11-18T10:40:43;6.00;99.90
35127;DHT22;21300;52.006;5.798;2023-11-18T10:43:09;6.10;99.90
35127;DHT22;21300;52.006;5.798;2023-11-18T10:45:36;6.10;99.90
35127;DHT22;21300;52.006;5.798;2023-11-18T10:48:08;6.10;99.90
35127;DHT22;21300;52.006;5.798;2023-11-18T10:50:34;6.10;99.90
35127;DHT22;21300;52.006;5.798;2023-11-18T10:53:00;6.10;99.90
35127;DHT22;21300;52.006;5.798;2023-11-18T10:55:40;6.20;99.90
35127;DHT22;21300;52.006;5.798;2023-11-18T10:58:06;6.20;99.90
35127;DHT22;21300;52.006;5.798;2023-11-18T11:00:51;6.20;99.90
35127;DHT22;21300;52.006;5.798;2023-11-18T11:03:21;6.30;99.90
35127;DHT22;21300;52.006;5.798;2023-11-18T11:05:52;6.30;99.90
35127;DHT22;21300;52.006;5.798;2023-11-18T11:08:19;6.30;99.90
35127;DHT22;21300;52.006;5.798;2023-11-18T11:10:46;6.30;99.90
35127;DHT22;21300;52.006;5.798;2023-11-18T11:13:14;6.30;99.90
35127;DHT22;21300;52.006;5.798;2023-11-18T11:15:43;6.30;99.90
35127;DHT22;21300;52.006;5.798;2023-11-18T11:18:12;6.40;99.90
35127;DHT22;21300;52.006;5.798;2023-11-18T11:21:04;6.40;99.90
35127;DHT22;21300;52.006;5.798;2023-11-18T11:28:51;6.40;99.90
35127;DHT22;21300;52.006;5.798;2023-11-18T11:31:30;6.40;99.90
35127;DHT22;21300;52.006;5.798;2023-11-18T11:34:17;6.40;99.90
35127;DHT22;21300;52.006;5.798;2023-11-18T11:36:49;6.40;99.90
35127;DHT22;21300;52.006;5.798;2023-11-18T11:39:17;6.40;99.90
35127;DHT22;21300;52.006;5.798;2023-11-18T11:41:44;6.50;99.90
35127;DHT22;21300;52.006;5.798;2023-11-18T11:44:14;6.40;99.90
35127;DHT22;21300;52.006;5.798;2023-11-18T11:46:40;6.40;99.90
35127;DHT22;21300;52.006;5.798;2023-11-18T11:49:09;6.40;99.90
35127;DHT22;21300;52.006;5.798;2023-11-18T11:52:23;6.40;99.90
35127;DHT22;21300;52.006;5.798;2023-11-18T11:55:05;6.50;99.90
35127;DHT22;21300;52.006;5.798;2023-11-18T11:57:32;6.50;99.90
35127;DHT22;21300;52.006;5.798;2023-11-18T12:00:03;6.50;99.90
35127;DHT22;21300;52.006;5.798;2023-11-18T12:02:51;6.50;99.90
35127;DHT22;21300;52.006;5.798;2023-11-18T12:05:20;6.50;99.90
35127;DHT22;21300;52.006;5.798;2023-11-18T12:07:52;6.50;99.90
35127;DHT22;21300;52.006;5.798;2023-11-18T12:10:19;6.50;99.90
35127;DHT22;21300;52.006;5.798;2023-11-18T12:12:48;6.60;99.90
35127;DHT22;21300;52.006;5.798;2023-11-18T12:15:14;6.60;99.90
35127;DHT22;21300;52.006;5.798;2023-11-18T12:20:43;6.60;99.90
35127;DHT22;21300;52.006;5.798;2023-11-18T12:23:20;6.60;99.90
35127;DHT22;21300;52.006;5.798;2023-11-18T12:25:56;6.60;99.90
35127;DHT22;21300;52.006;5.798;2023-11-18T12:28:31;6.60;99.90
35127;DHT22;21300;52.006;5.798;2023-11-18T12:31:01;6.70;99.90
35127;DHT22;21300;52.006;5.798;2023-11-18T12:42:05;6.70;99.90
35127;DHT22;21300;52.006;5.798;2023-11-18T12:47:48;6.80;99.90
35127;DHT22;21300;52.006;5.798;2023-11-18T12:50:16;6.90;99.90
35127;DHT22;21300;52.006;5.798;2023-11-18T12:52:51;6.90;99.90
35127;DHT22;21300;52.006;5.798;2023-11-18T12:55:17;6.90;99.90
35127;DHT22;21300;52.006;5.798;2023-11-18T12:57:48;6.90;99.90
35127;DHT22;21300;52.006;5.798;2023-11-18T13:00:16;6.90;99.90
35127;DHT22;21300;52.006;5.798;2023-11-18T13:02:54;6.90;99.90
35127;DHT22;21300;52.006;5.798;2023-11-18T13:05:23;6.90;99.90
35127;DHT22;21300;52.006;5.798;2023-11-18T13:07:48;7.00;99.90
35127;DHT22;21300;52.006;5.798;2023-11-18T13:10:16;7.00;99.90
35127;DHT22;21300;52.006;5.798;2023-11-18T13:12:43;7.00;99.90
35127;DHT22;21300;52.006;5.798;2023-11-18T13:15:13;7.00;99.90
35127;DHT22;21300;52.006;5.798;2023-11-18T13:18:03;7.00;99.90
35127;DHT22;21300;52.006;5.798;2023-11-18T13:20:32;7.00;99.90
35127;DHT22;21300;52.006;5.798;2023-11-18T13:23:01;7.00;99.90
35127;DHT22;21300;52.006;5.798;2023-11-18T13:25:35;7.00;99.90
35127;DHT22;21300;52.006;5.798;2023-11-18T13:28:05;7.00;99.90
35127;DHT22;21300;52.006;5.798;2023-11-18T13:30:31;7.00;99.90
35127;DHT22;21300;52.006;5.798;2023-11-18T13:32:56;7.00;99.90
35127;DHT22;21300;52.006;5.798;2023-11-18T13:35:23;7.00;99.90
35127;DHT22;21300;52.006;5.798;2023-11-18T13:37:49;7.10;99.90
35127;DHT22;21300;52.006;5.798;2023-11-18T13:40:15;7.10;99.90
35127;DHT22;21300;52.006;5.798;2023-11-18T13:42:43;7.00;99.90
35127;DHT22;21300;52.006;5.798;2023-11-18T13:45:12;7.00;99.90
35127;DHT22;21300;52.006;5.798;2023-11-18T13:47:51;7.10;99.90
35127;DHT22;21300;52.006;5.798;2023-11-18T13:50:20;7.10;99.90
35127;DHT22;21300;52.006;5.798;2023-11-18T13:52:47;7.10;99.90
35127;DHT22;21300;52.006;5.798;2023-11-18T13:55:15;7.10;99.90
35127;DHT22;21300;52.006;5.798;2023-11-18T13:57:53;7.10;99.90
35127;DHT22;21300;52.006;5.798;2023-11-18T14:00:21;7.10;99.90
35127;DHT22;21300;52.006;5.798;2023-11-18T14:02:48;7.10;99.90
35127;DHT22;21300;52.006;5.798;2023-11-18T14:05:15;7.10;99.90
35127;DHT22;21300;52.006;5.798;2023-11-18T14:07:42;7.10;99.90
35127;DHT22;21300;52.006;5.798;2023-11-18T14:10:09;7.20;99.90
35127;DHT22;21300;52.006;5.798;2023-11-18T14:12:39;7.10;99.90
35127;DHT22;21300;52.006;5.798;2023-11-18T14:15:05;7.10;99.90
35127;DHT22;21300;52.006;5.798;2023-11-18T14:17:35;7.10;99.90
35127;DHT22;21300;52.006;5.798;2023-11-18T14:20:01;7.20;99.90
35127;DHT22;21300;52.006;5.798;2023-11-18T14:22:27;7.10;99.90
35127;DHT22;21300;52.006;5.798;2023-11-18T14:24:53;7.10;99.90
35127;DHT22;21300;52.006;5.798;2023-11-18T14:27:19;7.10;99.90
35127;DHT22;21300;52.006;5.798;2023-11-18T14:29:44;7.10;99.90
35127;DHT22;21300;52.006;5.798;2023-11-18T14:32:11;7.10;99.90
35127;DHT22;21300;52.006;5.798;2023-11-18T14:34:39;7.10;99.90
35127;DHT22;21300;52.006;5.798;2023-11-18T14:37:07;7.20;99.90
35127;DHT22;21300;52.006;5.798;2023-11-18T14:39:33;7.20;99.90
35127;DHT22;21300;52.006;5.798;2023-11-18T14:42:01;7.20;99.90
35127;DHT22;21300;52.006;5.798;2023-11-18T14:44:27;7.20;99.90
35127;DHT22;21300;52.006;5.798;2023-11-18T14:46:52;7.10;99.90
35127;DHT22;21300;52.006;5.798;2023-11-18T14:49:20;7.20;99.90
35127;DHT22;21300;52.006;5.798;2023-11-18T14:51:45;7.20;99.90
35127;DHT22;21300;52.006;5.798;2023-11-18T14:54:11;7.20;99.90
35127;DHT22;21300;52.006;5.798;2023-11-18T14:56:37;7.20;99.90
35127;DHT22;21300;52.006;5.798;2023-11-18T14:59:03;7.20;99.90
35127;DHT22;21300;52.006;5.798;2023-11-18T15:01:30;7.10;99.90
35127;DHT22;21300;52.006;5.798;2023-11-18T15:03:56;7.20;99.90
35127;DHT22;21300;52.006;5.798;2023-11-18T15:06:28;7.20;99.90
35127;DHT22;21300;52.006;5.798;2023-11-18T15:08:54;7.10;99.90
35127;DHT22;21300;52.006;5.798;2023-11-18T15:11:22;7.10;99.90
35127;DHT22;21300;52.006;5.798;2023-11-18T15:13:49;7.10;99.90
35127;DHT22;21300;52.006;5.798;2023-11-18T15:16:18;7.10;99.90
35127;DHT22;21300;52.006;5.798;2023-11-18T15:18:44;7.10;99.90
35127;DHT22;21300;52.006;5.798;2023-11-18T15:21:12;7.10;99.90
35127;DHT22;21300;52.006;5.798;2023-11-18T15:23:40;7.10;99.90
35127;DHT22;21300;52.006;5.798;2023-11-18T15:26:07;7.10;99.90
35127;DHT22;21300;52.006;5.798;2023-11-18T15:28:34;7.10;99.90
35127;DHT22;21300;52.006;5.798;2023-11-18T15:31:00;7.10;99.90
35127;DHT22;21300;52.006;5.798;2023-11-18T15:33:28;7.10;99.90
35127;DHT22;21300;52.006;5.798;2023-11-18T15:35:53;7.10;99.90
35127;DHT22;21300;52.006;5.798;2023-11-18T15:38:20;7.10;99.90
35127;DHT22;21300;52.006;5.798;2023-11-18T15:40:48;7.10;99.90
35127;DHT22;21300;52.006;5.798;2023-11-18T15:43:15;7.10;99.90
35127;DHT22;21300;52.006;5.798;2023-11-18T15:45:42;7.10;99.90
35127;DHT22;21300;52.006;5.798;2023-11-18T15:48:10;7.20;99.90
35127;DHT22;21300;52.006;5.798;2023-11-18T15:50:36;7.10;99.90
35127;DHT22;21300;52.006;5.798;2023-11-18T15:53:03;7.10;99.90
35127;DHT22;21300;52.006;5.798;2023-11-18T15:55:29;7.20;99.90
35127;DHT22;21300;52.006;5.798;2023-11-18T15:57:54;7.10;99.90
35127;DHT22;21300;52.006;5.798;2023-11-18T16:00:21;7.10;99.90
35127;DHT22;21300;52.006;5.798;2023-11-18T16:02:51;7.10;99.90
35127;DHT22;21300;52.006;5.798;2023-11-18T16:05:19;7.10;99.90
35127;DHT22;21300;52.006;5.798;2023-11-18T16:07:49;7.10;99.90
35127;DHT22;21300;52.006;5.798;2023-11-18T16:10:20;7.10;99.90
35127;DHT22;21300;52.006;5.798;2023-11-18T16:12:53;7.10;99.90
35127;DHT22;21300;52.006;5.798;2023-11-18T16:15:27;7.20;99.90
35127;DHT22;21300;52.006;5.798;2023-11-18T16:17:55;7.10;99.90
35127;DHT22;21300;52.006;5.798;2023-11-18T16:20:23;7.20;99.90
35127;DHT22;21300;52.006;5.798;2023-11-18T16:22:51;7.20;99.90
35127;DHT22;21300;52.006;5.798;2023-11-18T16:25:19;7.20;99.90
35127;DHT22;21300;52.006;5.798;2023-11-18T16:27:50;7.20;99.90
35127;DHT22;21300;52.006;5.798;2023-11-18T16:30:17;7.20;99.90
35127;DHT22;21300;52.006;5.798;2023-11-18T16:32:44;7.20;99.90
35127;DHT22;21300;52.006;5.798;2023-11-18T16:35:10;7.30;99.90
35127;DHT22;21300;52.006;5.798;2023-11-18T16:37:39;7.30;99.90
35127;DHT22;21300;52.006;5.798;2023-11-18T16:40:06;7.30;99.90
35127;DHT22;21300;52.006;5.798;2023-11-18T16:42:32;7.30;99.90
35127;DHT22;21300;52.006;5.798;2023-11-18T16:44:57;7.30;99.90
35127;DHT22;21300;52.006;5.798;2023-11-18T16:47:27;7.30;99.90
35127;DHT22;21300;52.006;5.798;2023-11-18T16:49:53;7.30;99.90
35127;DHT22;21300;52.006;5.798;2023-11-18T16:52:18;7.30;99.90
35127;DHT22;21300;52.006;5.798;2023-11-18T16:54:48;7.30;99.90
35127;DHT22;21300;52.006;5.798;2023-11-18T16:57:14;7.30;99.90
35127;DHT22;21300;52.006;5.798;2023-11-18T16:59:39;7.30;99.90
35127;DHT22;21300;52.006;5.798;2023-11-18T17:02:05;7.40;99.90
35127;DHT22;21300;52.006;5.798;2023-11-18T17:04:31;7.40;99.90
35127;DHT22;21300;52.006;5.798;2023-11-18T17:06:58;7.50;99.90
35127;DHT22;21300;52.006;5.798;2023-11-18T17:09:23;7.40;99.90
35127;DHT22;21300;52.006;5.798;2023-11-18T17:11:49;7.50;99.90
35127;DHT22;21300;52.006;5.798;2023-11-18T17:14:15;7.60;99.90
35127;DHT22;21300;52.006;5.798;2023-11-18T17:16:41;7.60;99.90
35127;DHT22;21300;52.006;5.798;2023-11-18T17:19:09;7.60;99.90
35127;DHT22;21300;52.006;5.798;2023-11-18T17:21:35;7.60;99.90
35127;DHT22;21300;52.006;5.798;2023-11-18T17:24:03;7.60;99.90
35127;DHT22;21300;52.006;5.798;2023-11-18T17:26:34;7.60;99.90
35127;DHT22;21300;52.006;5.798;2023-11-18T17:29:03;7.60;99.90
35127;DHT22;21300;52.006;5.798;2023-11-18T17:31:28;7.70;99.90
35127;DHT22;21300;52.006;5.798;2023-11-18T17:33:54;7.80;99.90
35127;DHT22;21300;52.006;5.798;2023-11-18T17:36:19;7.80;99.90
35127;DHT22;21300;52.006;5.798;2023-11-18T17:38:45;7.80;99.90
35127;DHT22;21300;52.006;5.798;2023-11-18T17:41:11;7.80;99.90
35127;DHT22;21300;52.006;5.798;2023-11-18T17:43:37;7.80;99.90
35127;DHT22;21300;52.006;5.798;2023-11-18T17:46:04;7.90;99.90
35127;DHT22;21300;52.006;5.798;2023-11-18T17:48:29;7.90;99.90
35127;DHT22;21300;52.006;5.798;2023-11-18T17:50:55;8.00;99.90
35127;DHT22;21300;52.006;5.798;2023-11-18T17:53:24;8.00;99.90
35127;DHT22;21300;52.006;5.798;2023-11-18T17:55:49;8.00;99.90
35127;DHT22;21300;52.006;5.798;2023-11-18T17:58:16;8.00;99.90
35127;DHT22;21300;52.006;5.798;2023-11-18T18:00:41;8.10;99.90
35127;DHT22;21300;52.006;5.798;2023-11-18T18:03:07;8.10;99.90
35127;DHT22;21300;52.006;5.798;2023-11-18T18:05:33;8.10;99.90
35127;DHT22;21300;52.006;5.798;2023-11-18T18:07:58;8.20;99.90
35127;DHT22;21300;52.006;5.798;2023-11-18T18:10:24;8.20;99.90
35127;DHT22;21300;52.006;5.798;2023-11-18T18:12:53;8.20;99.90